createdAt,value
2023-12-30T00:00:03.183Z,30.99
2023-12-30T00:01:04.334Z,31.02
2023-12-30T00:02:03.210Z,30.99
2023-12-30T00:03:03.502Z,31.02
2023-12-30T00:04:03.332Z,31.00
2023-12-30T00:05:03.204Z,31.02
2023-12-30T00:06:03.249Z,31.00
2023-12-30T00:07:03.225Z,30.99
2023-12-30T00:08:03.207Z,30.99
2023-12-30T00:09:03.211Z,31.05
2023-12-30T00:10:03.233Z,30.98
2023-12-30T00:11:03.241Z,30.96
2023-12-30T00:12:03.218Z,30.98
2023-12-30T00:13:03.628Z,30.96
2023-12-30T00:14:03.207Z,30.96
2023-12-30T00:15:03.202Z,30.95
2023-12-30T00:16:03.221Z,31.00
2023-12-30T00:17:03.207Z,31.02
2023-12-30T00:18:03.342Z,31.02
2023-12-30T00:19:03.380Z,31.00
2023-12-30T00:20:03.333Z,31.02
2023-12-30T00:21:03.295Z,31.06
2023-12-30T00:22:03.336Z,30.99
2023-12-30T00:23:03.659Z,31.00
2023-12-30T00:24:03.409Z,31.02
2023-12-30T00:25:03.480Z,30.97
2023-12-30T00:26:03.469Z,31.03
2023-12-30T00:27:03.496Z,30.97
2023-12-30T00:28:03.533Z,30.98
2023-12-30T00:29:03.566Z,31.00
2023-12-30T00:30:03.663Z,31.05
2023-12-30T00:31:03.708Z,31.02
2023-12-30T00:32:03.741Z,31.00
2023-12-30T00:33:04.160Z,31.03
2023-12-30T00:34:03.815Z,31.03
2023-12-30T00:35:03.769Z,31.00
2023-12-30T00:36:03.800Z,31.02
2023-12-30T00:37:03.860Z,31.00
2023-12-30T00:38:03.877Z,31.02
2023-12-30T00:39:03.958Z,31.02
2023-12-30T00:40:03.993Z,30.99
2023-12-30T00:41:03.989Z,31.03
2023-12-30T00:42:04.017Z,30.99
2023-12-30T00:43:04.235Z,31.03
2023-12-30T00:44:04.104Z,31.03
2023-12-30T00:45:04.137Z,30.99
2023-12-30T00:46:04.347Z,31.02
2023-12-30T00:47:04.215Z,30.97
2023-12-30T00:48:04.393Z,31.07
2023-12-30T00:49:04.380Z,31.03
2023-12-30T00:50:04.325Z,31.07
2023-12-30T00:51:04.363Z,31.12
2023-12-30T00:52:04.479Z,31.08
2023-12-30T00:53:04.900Z,31.05
2023-12-30T00:54:04.687Z,31.00
2023-12-30T00:55:04.542Z,31.05
2023-12-30T00:56:04.554Z,31.00
2023-12-30T00:57:04.587Z,31.02
2023-12-30T00:58:04.675Z,31.04
2023-12-30T00:59:04.660Z,31.07
2023-12-30T01:00:04.734Z,31.10
2023-12-30T01:01:04.771Z,31.07
2023-12-30T01:02:04.786Z,31.05
2023-12-30T01:03:04.981Z,31.04
2023-12-30T01:04:04.957Z,31.07
2023-12-30T01:05:04.967Z,31.02
2023-12-30T01:06:04.910Z,31.05
2023-12-30T01:07:04.980Z,31.05
2023-12-30T01:08:05.014Z,31.07
2023-12-30T01:09:05.017Z,31.07
2023-12-30T01:10:05.101Z,31.07
2023-12-30T01:11:05.130Z,31.06
2023-12-30T01:12:05.121Z,31.08
2023-12-30T01:13:05.930Z,31.05
2023-12-30T01:14:05.202Z,31.05
2023-12-30T01:15:05.240Z,31.07
2023-12-30T01:16:05.342Z,31.05
2023-12-30T01:17:05.326Z,31.08
2023-12-30T01:18:05.392Z,31.10
2023-12-30T01:19:05.524Z,31.05
2023-12-30T01:20:06.317Z,31.07
2023-12-30T01:21:05.460Z,31.08
2023-12-30T01:22:05.537Z,31.09
2023-12-30T01:23:05.537Z,31.09
2023-12-30T01:24:05.686Z,31.11
2023-12-30T01:25:05.674Z,31.05
2023-12-30T01:26:05.650Z,31.05
2023-12-30T01:27:05.689Z,31.12
2023-12-30T01:28:05.772Z,31.04
2023-12-30T01:29:05.777Z,31.07
2023-12-30T01:30:05.881Z,31.08
2023-12-30T01:31:06.099Z,31.09
2023-12-30T01:32:05.896Z,31.08
2023-12-30T01:33:06.428Z,31.07
2023-12-30T01:34:06.025Z,31.09
2023-12-30T01:35:06.041Z,31.09
2023-12-30T01:36:06.046Z,31.08
2023-12-30T01:37:06.093Z,31.08
2023-12-30T01:38:06.926Z,31.07
2023-12-30T01:39:06.154Z,31.08
2023-12-30T01:40:06.225Z,31.11
2023-12-30T01:41:06.239Z,31.11
2023-12-30T01:42:06.256Z,31.11
2023-12-30T01:43:06.919Z,31.07
2023-12-30T01:44:06.355Z,31.08
2023-12-30T01:45:06.383Z,31.09
2023-12-30T01:46:06.462Z,31.09
2023-12-30T01:47:06.464Z,31.12
2023-12-30T01:48:06.559Z,31.08
2023-12-30T01:49:06.635Z,31.11
2023-12-30T01:50:06.552Z,31.08
2023-12-30T01:51:06.600Z,31.07
2023-12-30T01:52:07.627Z,31.07
2023-12-30T01:53:06.635Z,31.12
2023-12-30T01:54:06.606Z,31.12
2023-12-30T01:55:06.638Z,31.08
2023-12-30T01:56:06.602Z,31.14
2023-12-30T01:57:06.606Z,31.12
2023-12-30T01:58:06.616Z,31.11
2023-12-30T01:59:06.626Z,31.14
2023-12-30T02:00:06.620Z,31.15
2023-12-30T02:01:06.706Z,31.14
2023-12-30T02:02:06.756Z,31.16
2023-12-30T02:03:06.660Z,31.11
2023-12-30T02:04:06.653Z,31.12
2023-12-30T02:05:06.672Z,31.15
2023-12-30T02:06:06.624Z,31.11
2023-12-30T02:07:06.653Z,31.14
2023-12-30T02:08:06.649Z,31.14
2023-12-30T02:09:06.706Z,31.08
2023-12-30T02:10:06.743Z,31.16
2023-12-30T02:11:06.764Z,31.15
2023-12-30T02:12:06.814Z,31.08
2023-12-30T02:13:06.850Z,31.15
2023-12-30T02:14:06.876Z,31.12
2023-12-30T02:15:06.906Z,31.15
2023-12-30T02:16:06.961Z,31.15
2023-12-30T02:17:07.011Z,31.16
2023-12-30T02:18:07.182Z,31.13
2023-12-30T02:19:07.273Z,31.09
2023-12-30T02:20:07.188Z,31.12
2023-12-30T02:21:07.245Z,31.15
2023-12-30T02:22:07.246Z,31.09
2023-12-30T02:23:07.254Z,31.15
2023-12-30T02:24:07.295Z,31.16
2023-12-30T02:25:07.386Z,31.15
2023-12-30T02:26:07.384Z,31.13
2023-12-30T02:27:07.415Z,31.12
2023-12-30T02:28:07.487Z,31.15
2023-12-30T02:29:07.519Z,31.16
2023-12-30T02:30:07.590Z,31.18
2023-12-30T02:31:07.638Z,31.15
2023-12-30T02:32:07.670Z,31.16
2023-12-30T02:33:08.084Z,31.15
2023-12-30T02:34:07.894Z,31.12
2023-12-30T02:35:07.819Z,31.15
2023-12-30T02:36:07.847Z,31.18
2023-12-30T02:37:07.929Z,31.15
2023-12-30T02:38:07.950Z,31.20
2023-12-30T02:39:07.989Z,31.15
2023-12-30T02:40:08.089Z,31.16
2023-12-30T02:41:08.083Z,31.15
2023-12-30T02:42:08.134Z,31.16
2023-12-30T02:43:08.202Z,31.23
2023-12-30T02:44:08.225Z,31.18
2023-12-30T02:45:08.270Z,31.21
2023-12-30T02:46:08.316Z,31.18
2023-12-30T02:47:08.343Z,31.16
2023-12-30T02:48:08.471Z,31.22
2023-12-30T02:49:08.537Z,31.13
2023-12-30T02:50:08.460Z,31.16
2023-12-30T02:51:08.502Z,31.15
2023-12-30T02:52:08.557Z,31.17
2023-12-30T02:53:08.582Z,31.16
2023-12-30T02:54:08.616Z,31.17
2023-12-30T02:55:08.713Z,31.13
2023-12-30T02:56:08.717Z,31.18
2023-12-30T02:57:08.759Z,31.16
2023-12-30T02:58:08.813Z,31.19
2023-12-30T02:59:08.829Z,31.20
2023-12-30T03:00:08.861Z,31.16
2023-12-30T03:01:08.928Z,31.22
2023-12-30T03:02:08.972Z,31.18
2023-12-30T03:03:08.992Z,31.18
2023-12-30T03:04:09.157Z,31.19
2023-12-30T03:05:09.244Z,31.15
2023-12-30T03:06:09.158Z,31.19
2023-12-30T03:07:09.183Z,31.18
2023-12-30T03:08:09.207Z,31.22
2023-12-30T03:09:09.257Z,31.18
2023-12-30T03:10:09.411Z,31.20
2023-12-30T03:11:09.772Z,31.20
2023-12-30T03:12:09.375Z,31.20
2023-12-30T03:13:09.447Z,31.20
2023-12-30T03:14:09.468Z,31.20
2023-12-30T03:15:09.499Z,31.19
2023-12-30T03:16:09.586Z,31.15
2023-12-30T03:17:09.617Z,31.16
2023-12-30T03:18:09.741Z,31.18
2023-12-30T03:19:09.846Z,31.20
2023-12-30T03:20:09.732Z,31.23
2023-12-30T03:21:09.776Z,31.24
2023-12-30T03:22:09.865Z,31.19
2023-12-30T03:23:09.876Z,31.15
2023-12-30T03:24:09.922Z,31.19
2023-12-30T03:25:10.005Z,31.22
2023-12-30T03:26:10.006Z,31.20
2023-12-30T03:27:10.036Z,31.17
2023-12-30T03:28:10.128Z,31.19
2023-12-30T03:29:10.131Z,31.17
2023-12-30T03:30:10.228Z,31.16
2023-12-30T03:31:10.272Z,31.16
2023-12-30T03:32:10.253Z,31.16
2023-12-30T03:33:10.335Z,31.16
2023-12-30T03:34:10.542Z,31.19
2023-12-30T03:35:10.394Z,31.20
2023-12-30T03:36:10.425Z,31.20
2023-12-30T03:37:10.499Z,31.21
2023-12-30T03:38:10.526Z,31.21
2023-12-30T03:39:10.695Z,31.19
2023-12-30T03:40:10.643Z,31.19
2023-12-30T03:41:10.691Z,31.17
2023-12-30T03:42:10.726Z,31.19
2023-12-30T03:43:10.811Z,31.20
2023-12-30T03:44:10.812Z,31.14
2023-12-30T03:45:10.945Z,31.24
2023-12-30T03:46:10.938Z,31.19
2023-12-30T03:47:10.952Z,31.16
2023-12-30T03:48:11.181Z,31.20
2023-12-30T03:49:11.152Z,31.26
2023-12-30T03:50:11.271Z,31.20
2023-12-30T03:51:11.154Z,31.21
2023-12-30T03:52:11.280Z,31.22
2023-12-30T03:53:11.219Z,31.19
2023-12-30T03:54:11.276Z,31.24
2023-12-30T03:55:11.338Z,31.24
2023-12-30T03:56:11.363Z,31.24
2023-12-30T03:57:11.404Z,31.19
2023-12-30T03:58:11.442Z,31.21
2023-12-30T03:59:11.498Z,31.19
2023-12-30T04:00:11.533Z,31.23
2023-12-30T04:01:11.623Z,31.24
2023-12-30T04:02:11.625Z,31.24
2023-12-30T04:03:11.790Z,31.27
2023-12-30T04:04:11.783Z,31.26
2023-12-30T04:05:11.777Z,31.23
2023-12-30T04:06:11.806Z,31.24
2023-12-30T04:07:11.855Z,31.28
2023-12-30T04:08:11.973Z,31.26
2023-12-30T04:09:11.953Z,31.20
2023-12-30T04:10:12.013Z,31.24
2023-12-30T04:11:12.154Z,31.30
2023-12-30T04:12:12.069Z,31.24
2023-12-30T04:13:12.166Z,31.24
2023-12-30T04:14:12.153Z,31.27
2023-12-30T04:15:12.197Z,31.29
2023-12-30T04:16:12.252Z,31.21
2023-12-30T04:17:12.313Z,31.23
2023-12-30T04:18:12.389Z,31.27
2023-12-30T04:19:12.542Z,31.25
2023-12-30T04:20:12.485Z,31.23
2023-12-30T04:21:12.488Z,31.28
2023-12-30T04:22:12.555Z,31.28
2023-12-30T04:23:19.723Z,31.33
2023-12-30T04:24:19.733Z,31.28
2023-12-30T04:25:19.782Z,31.29
2023-12-30T04:26:19.726Z,31.29
2023-12-30T04:27:19.725Z,31.29
2023-12-30T04:28:19.829Z,31.25
2023-12-30T04:29:19.731Z,31.28
2023-12-30T04:30:19.864Z,31.32
2023-12-30T04:31:27.168Z,31.30
2023-12-30T04:32:27.171Z,31.32
2023-12-30T04:33:27.202Z,31.28
2023-12-30T04:34:27.226Z,31.24
2023-12-30T04:35:27.188Z,31.25
2023-12-30T04:36:27.146Z,31.27
2023-12-30T04:37:27.229Z,31.25
2023-12-30T04:38:27.148Z,31.25
2023-12-30T04:39:27.158Z,31.27
2023-12-30T04:40:27.177Z,31.27
2023-12-30T04:41:27.147Z,31.21
2023-12-30T04:42:27.155Z,31.22
2023-12-30T04:43:27.169Z,31.28
2023-12-30T04:44:27.163Z,31.23
2023-12-30T04:45:27.169Z,31.24
2023-12-30T04:46:27.191Z,31.25
2023-12-30T04:47:27.184Z,31.23
2023-12-30T04:48:27.244Z,31.24
2023-12-30T04:49:27.283Z,31.27
2023-12-30T04:50:27.180Z,31.28
2023-12-30T04:51:27.177Z,31.31
2023-12-30T04:52:27.229Z,31.25
2023-12-30T04:53:27.170Z,31.28
2023-12-30T04:54:27.235Z,31.31
2023-12-30T04:55:27.315Z,31.25
2023-12-30T04:56:27.177Z,31.27
2023-12-30T04:57:27.189Z,31.27
2023-12-30T04:58:27.211Z,31.31
2023-12-30T04:59:27.177Z,31.28
2023-12-30T05:00:27.218Z,31.27
2023-12-30T05:01:27.274Z,31.25
2023-12-30T05:02:27.186Z,31.22
2023-12-30T05:03:27.221Z,31.25
2023-12-30T05:04:27.237Z,31.31
2023-12-30T05:05:27.197Z,31.21
2023-12-30T05:06:27.183Z,31.24
2023-12-30T05:07:27.219Z,31.24
2023-12-30T05:08:27.189Z,31.27
2023-12-30T05:09:27.184Z,31.31
2023-12-30T05:10:27.248Z,31.32
2023-12-30T05:11:27.178Z,31.29
2023-12-30T05:12:27.243Z,31.29
2023-12-30T05:13:27.254Z,31.25
2023-12-30T05:14:27.189Z,31.23
2023-12-30T05:15:27.194Z,31.25
2023-12-30T05:16:27.209Z,31.29
2023-12-30T05:17:27.229Z,31.27
2023-12-30T05:18:27.266Z,31.29
2023-12-30T05:19:27.248Z,31.27
2023-12-30T05:20:27.206Z,31.24
2023-12-30T05:21:27.208Z,31.21
2023-12-30T05:22:27.292Z,31.25
2023-12-30T05:23:27.206Z,31.25
2023-12-30T05:24:27.213Z,31.19
2023-12-30T05:25:27.245Z,31.28
2023-12-30T05:26:27.219Z,31.25
2023-12-30T05:27:27.226Z,31.25
2023-12-30T05:28:27.243Z,31.25
2023-12-30T05:29:27.287Z,31.28
2023-12-30T05:30:27.351Z,31.28
2023-12-30T05:31:27.374Z,31.25
2023-12-30T05:32:27.486Z,31.28
2023-12-30T05:33:27.499Z,31.27
2023-12-30T05:34:27.581Z,31.25
2023-12-30T05:35:27.534Z,31.27
2023-12-30T05:36:27.565Z,31.22
2023-12-30T05:37:27.704Z,31.25
2023-12-30T05:38:27.657Z,31.25
2023-12-30T05:39:27.711Z,31.25
2023-12-30T05:40:27.755Z,31.29
2023-12-30T05:41:27.794Z,31.25
2023-12-30T05:42:27.832Z,31.33
2023-12-30T05:43:27.937Z,31.26
2023-12-30T05:44:27.982Z,31.27
2023-12-30T05:45:27.953Z,31.28
2023-12-30T05:46:28.146Z,31.32
2023-12-30T05:47:28.050Z,31.28
2023-12-30T05:48:28.168Z,31.33
2023-12-30T05:49:28.208Z,31.28
2023-12-30T05:50:28.187Z,31.28
2023-12-30T05:51:28.233Z,31.27
2023-12-30T05:52:28.380Z,31.27
2023-12-30T05:53:28.336Z,31.29
2023-12-30T05:54:28.372Z,31.29
2023-12-30T05:55:28.485Z,31.30
2023-12-30T05:56:28.774Z,31.28
2023-12-30T05:57:28.515Z,31.32
2023-12-30T05:58:28.612Z,31.31
2023-12-30T05:59:28.616Z,31.28
2023-12-30T06:00:28.674Z,31.29
2023-12-30T06:01:28.787Z,31.24
2023-12-30T06:02:28.771Z,31.22
2023-12-30T06:03:28.844Z,31.28
2023-12-30T06:04:28.865Z,31.28
2023-12-30T06:05:29.014Z,31.25
2023-12-30T06:06:31.295Z,31.29
2023-12-30T06:07:28.985Z,31.21
2023-12-30T06:08:28.958Z,31.25
2023-12-30T06:09:28.975Z,31.27
2023-12-30T06:10:28.975Z,31.28
2023-12-30T06:11:28.965Z,31.25
2023-12-30T06:12:28.971Z,31.25
2023-12-30T06:13:28.976Z,31.27
2023-12-30T06:14:28.971Z,31.19
2023-12-30T06:15:28.972Z,31.22
2023-12-30T06:16:28.996Z,31.24
2023-12-30T06:17:28.983Z,31.21
2023-12-30T06:18:29.069Z,31.25
2023-12-30T06:19:29.057Z,31.29
2023-12-30T06:20:28.969Z,31.22
2023-12-30T06:21:28.971Z,31.28
2023-12-30T06:22:29.018Z,31.24
2023-12-30T06:23:28.972Z,31.26
2023-12-30T06:24:28.998Z,31.30
2023-12-30T06:25:29.037Z,31.27
2023-12-30T06:26:28.993Z,31.27
2023-12-30T06:27:28.986Z,31.25
2023-12-30T06:28:29.068Z,31.23
2023-12-30T06:29:31.419Z,31.25
2023-12-30T06:30:28.998Z,31.25
2023-12-30T06:31:29.032Z,31.22
2023-12-30T06:32:29.030Z,31.22
2023-12-30T06:33:29.067Z,31.25
2023-12-30T06:34:29.003Z,31.27
2023-12-30T06:35:28.985Z,31.32
2023-12-30T06:36:28.989Z,31.29
2023-12-30T06:37:29.045Z,31.27
2023-12-30T06:38:28.997Z,31.25
2023-12-30T06:39:28.989Z,31.25
2023-12-30T06:40:29.056Z,31.34
2023-12-30T06:41:29.004Z,31.26
2023-12-30T06:42:29.094Z,31.27
2023-12-30T06:43:29.031Z,31.25
2023-12-30T06:44:29.030Z,31.21
2023-12-30T06:45:29.017Z,31.26
2023-12-30T06:46:29.064Z,31.25
2023-12-30T06:47:29.040Z,31.27
2023-12-30T06:48:29.066Z,31.27
2023-12-30T06:49:29.115Z,31.29
2023-12-30T06:50:29.050Z,31.32
2023-12-30T06:51:29.079Z,31.30
2023-12-30T06:52:29.060Z,31.23
2023-12-30T06:53:29.030Z,31.27
2023-12-30T06:54:29.043Z,31.27
2023-12-30T06:55:35.066Z,31.28
2023-12-30T06:56:30.087Z,31.26
2023-12-30T06:57:29.043Z,31.27
2023-12-30T06:58:29.123Z,31.25
2023-12-30T06:59:29.046Z,31.25
2023-12-30T07:00:29.060Z,31.26
2023-12-30T07:01:29.090Z,31.24
2023-12-30T07:02:29.042Z,31.23
2023-12-30T07:03:29.083Z,31.23
2023-12-30T07:04:29.286Z,31.25
2023-12-30T07:05:29.090Z,31.25
2023-12-30T07:06:29.081Z,31.22
2023-12-30T07:07:29.132Z,31.27
2023-12-30T07:08:29.062Z,31.21
2023-12-30T07:09:29.169Z,31.26
2023-12-30T07:10:29.174Z,31.28
2023-12-30T07:11:29.263Z,31.25
2023-12-30T07:12:29.221Z,31.25
2023-12-30T07:13:29.356Z,31.25
2023-12-30T07:14:29.377Z,31.24
2023-12-30T07:15:29.366Z,31.24
2023-12-30T07:16:29.454Z,31.25
2023-12-30T07:17:29.631Z,31.24
2023-12-30T07:18:29.510Z,31.25
2023-12-30T07:19:29.629Z,31.24
2023-12-30T07:20:29.604Z,31.21
2023-12-30T07:21:29.631Z,31.21
2023-12-30T07:22:29.737Z,31.22
2023-12-30T07:23:29.725Z,31.20
2023-12-30T07:24:29.769Z,31.18
2023-12-30T07:25:29.821Z,31.22
2023-12-30T07:26:29.870Z,31.20
2023-12-30T07:27:29.925Z,31.19
2023-12-30T07:28:29.976Z,31.14
2023-12-30T07:29:30.017Z,31.16
2023-12-30T07:30:30.071Z,31.17
2023-12-30T07:31:30.166Z,31.17
2023-12-30T07:32:30.189Z,31.17
2023-12-30T07:33:30.320Z,31.16
2023-12-30T07:34:30.269Z,31.17
2023-12-30T07:35:30.316Z,31.16
2023-12-30T07:36:30.303Z,31.13
2023-12-30T07:37:30.409Z,31.16
2023-12-30T07:38:30.382Z,31.15
2023-12-30T07:39:30.418Z,31.16
2023-12-30T07:40:30.462Z,31.17
2023-12-30T07:41:30.502Z,31.11
2023-12-30T07:42:30.537Z,31.12
2023-12-30T07:43:30.619Z,31.11
2023-12-30T07:44:30.616Z,31.09
2023-12-30T07:45:30.642Z,31.07
2023-12-30T07:46:30.762Z,31.04
2023-12-30T07:47:30.753Z,31.05
2023-12-30T07:48:30.903Z,31.05
2023-12-30T07:49:30.917Z,31.05
2023-12-30T07:50:30.820Z,31.05
2023-12-30T07:51:30.856Z,31.05
2023-12-30T07:52:30.958Z,31.02
2023-12-30T07:53:30.944Z,31.00
2023-12-30T07:54:31.003Z,31.05
2023-12-30T07:55:31.070Z,31.03
2023-12-30T07:56:31.089Z,30.97
2023-12-30T07:57:31.129Z,30.96
2023-12-30T07:58:31.248Z,30.99
2023-12-30T07:59:31.181Z,30.98
2023-12-30T08:00:31.241Z,30.97
2023-12-30T08:01:31.347Z,30.95
2023-12-30T08:02:31.279Z,31.01
2023-12-30T08:03:31.374Z,30.95
2023-12-30T08:04:31.410Z,30.94
2023-12-30T08:05:31.429Z,30.94
2023-12-30T08:06:31.397Z,30.95
2023-12-30T08:07:31.487Z,30.89
2023-12-30T08:08:31.461Z,30.89
2023-12-30T08:09:31.566Z,30.88
2023-12-30T08:10:31.562Z,30.90
2023-12-30T08:11:33.802Z,30.88
2023-12-30T08:12:31.681Z,30.81
2023-12-30T08:13:31.621Z,30.85
2023-12-30T08:14:31.553Z,30.89
2023-12-30T08:15:31.553Z,30.84
2023-12-30T08:16:31.623Z,30.82
2023-12-30T08:17:31.628Z,30.84
2023-12-30T08:18:31.621Z,30.84
2023-12-30T08:19:31.607Z,30.81
2023-12-30T08:20:31.567Z,30.85
2023-12-30T08:21:31.554Z,30.80
2023-12-30T08:22:31.629Z,30.84
2023-12-30T08:23:31.562Z,30.83
2023-12-30T08:24:31.563Z,30.79
2023-12-30T08:25:31.662Z,30.80
2023-12-30T08:26:31.576Z,30.77
2023-12-30T08:27:31.573Z,30.80
2023-12-30T08:28:31.643Z,30.75
2023-12-30T08:29:31.576Z,30.76
2023-12-30T08:30:31.620Z,30.74
2023-12-30T08:31:31.595Z,30.73
2023-12-30T08:32:31.610Z,30.69
2023-12-30T08:33:31.600Z,30.70
2023-12-30T08:34:31.620Z,30.66
2023-12-30T08:35:31.580Z,30.61
2023-12-30T08:36:31.601Z,30.63
2023-12-30T08:37:31.673Z,30.63
2023-12-30T08:38:31.581Z,30.63
2023-12-30T08:39:31.581Z,30.57
2023-12-30T08:40:33.321Z,30.63
2023-12-30T08:41:31.573Z,30.58
2023-12-30T08:42:31.584Z,30.59
2023-12-30T08:43:31.602Z,30.52
2023-12-30T08:44:31.598Z,30.55
2023-12-30T08:45:31.597Z,30.54
2023-12-30T08:46:31.676Z,30.52
2023-12-30T08:47:31.617Z,30.55
2023-12-30T08:48:31.726Z,30.51
2023-12-30T08:49:31.713Z,30.51
2023-12-30T08:50:31.609Z,30.46
2023-12-30T08:51:31.602Z,30.45
2023-12-30T08:52:31.643Z,30.43
2023-12-30T08:53:31.612Z,30.46
2023-12-30T08:54:31.620Z,30.42
2023-12-30T08:55:31.644Z,30.41
2023-12-30T08:56:31.622Z,30.39
2023-12-30T08:57:31.607Z,30.34
2023-12-30T08:58:31.674Z,30.35
2023-12-30T08:59:31.618Z,30.30
2023-12-30T09:00:31.642Z,30.29
2023-12-30T09:01:31.807Z,30.32
2023-12-30T09:02:31.627Z,30.29
2023-12-30T09:03:31.629Z,30.22
2023-12-30T09:04:31.667Z,30.23
2023-12-30T09:05:31.652Z,30.03
2023-12-30T09:06:31.620Z,29.63
2023-12-30T09:07:31.670Z,28.90
2023-12-30T09:08:31.620Z,28.11
2023-12-30T09:09:31.626Z,27.52
2023-12-30T09:10:31.666Z,27.10
2023-12-30T09:11:31.630Z,26.69
2023-12-30T09:12:31.625Z,26.60
2023-12-30T09:13:31.665Z,26.23
2023-12-30T09:14:31.636Z,25.78
2023-12-30T09:15:31.638Z,25.12
2023-12-30T09:16:31.732Z,24.46
2023-12-30T09:17:31.674Z,24.03
2023-12-30T09:18:31.726Z,23.44
2023-12-30T09:19:31.712Z,22.91
2023-12-30T09:20:31.643Z,22.82
2023-12-30T09:21:31.658Z,22.54
2023-12-30T09:22:31.708Z,22.05
2023-12-30T09:23:31.651Z,21.78
2023-12-30T09:24:31.757Z,21.75
2023-12-30T09:25:31.693Z,21.49
2023-12-30T09:26:31.668Z,21.14
2023-12-30T09:27:31.657Z,20.61
2023-12-30T09:28:31.692Z,20.18
2023-12-30T09:29:31.666Z,20.11
2023-12-30T09:30:31.693Z,20.29
2023-12-30T09:31:31.693Z,20.24
2023-12-30T09:32:31.691Z,20.26
2023-12-30T09:33:31.825Z,20.06
2023-12-30T09:34:41.162Z,19.67
2023-12-30T09:35:32.720Z,19.40
2023-12-30T09:36:31.670Z,19.22
2023-12-30T09:37:31.766Z,19.15
2023-12-30T09:38:31.676Z,19.10
2023-12-30T09:39:31.673Z,19.01
2023-12-30T09:40:31.723Z,19.17
2023-12-30T09:41:31.681Z,19.23
2023-12-30T09:42:31.697Z,19.20
2023-12-30T09:43:31.772Z,19.72
2023-12-30T09:44:31.676Z,20.53
2023-12-30T09:45:31.678Z,21.23
2023-12-30T09:46:31.772Z,21.85
2023-12-30T09:47:31.921Z,22.48
2023-12-30T09:48:32.058Z,23.03
2023-12-30T09:49:31.835Z,23.51
2023-12-30T09:50:31.894Z,23.92
2023-12-30T09:51:31.934Z,24.32
2023-12-30T09:52:32.008Z,24.62
2023-12-30T09:53:32.030Z,24.94
2023-12-30T09:54:42.251Z,25.24
2023-12-30T09:55:33.113Z,25.48
2023-12-30T09:56:32.083Z,25.66
2023-12-30T09:57:32.092Z,25.88
2023-12-30T09:58:32.149Z,26.05
2023-12-30T09:59:32.085Z,26.25
2023-12-30T10:00:32.128Z,26.38
2023-12-30T10:01:32.142Z,26.54
2023-12-30T10:02:32.088Z,26.67
2023-12-30T10:03:32.141Z,26.78
2023-12-30T10:04:32.150Z,26.91
2023-12-30T10:05:32.196Z,27.01
2023-12-30T10:06:32.120Z,27.14
2023-12-30T10:07:32.118Z,27.21
2023-12-30T10:08:32.092Z,27.25
2023-12-30T10:09:32.091Z,27.33
2023-12-30T10:10:32.132Z,27.31
2023-12-30T10:11:32.090Z,27.34
2023-12-30T10:12:32.095Z,27.31
2023-12-30T10:13:32.168Z,27.20
2023-12-30T10:14:32.133Z,27.09
2023-12-30T10:15:32.113Z,27.02
2023-12-30T10:16:32.129Z,26.83
2023-12-30T10:17:32.154Z,26.65
2023-12-30T10:18:32.287Z,26.53
2023-12-30T10:19:32.275Z,26.37
2023-12-30T10:20:32.320Z,26.23
2023-12-30T10:21:32.382Z,26.05
2023-12-30T10:22:32.493Z,25.93
2023-12-30T10:23:32.508Z,25.83
2023-12-30T10:24:32.552Z,25.69
2023-12-30T10:25:32.609Z,25.60
2023-12-30T10:26:32.630Z,25.50
2023-12-30T10:27:32.801Z,25.43
2023-12-30T10:28:32.769Z,25.41
2023-12-30T10:29:42.746Z,25.39
2023-12-30T10:30:33.798Z,25.39
2023-12-30T10:31:32.842Z,25.38
2023-12-30T10:32:32.810Z,25.34
2023-12-30T10:33:32.804Z,24.57
2023-12-30T10:34:32.929Z,23.56
2023-12-30T10:35:32.789Z,22.92
2023-12-30T10:36:32.778Z,22.25
2023-12-30T10:37:32.897Z,21.40
2023-12-30T10:38:32.793Z,20.45
2023-12-30T10:39:32.782Z,19.77
2023-12-30T10:40:33.015Z,18.95
2023-12-30T10:41:32.811Z,18.30
2023-12-30T10:42:32.937Z,17.94
2023-12-30T10:43:32.930Z,17.72
2023-12-30T10:44:32.904Z,17.37
2023-12-30T10:45:32.986Z,17.04
2023-12-30T10:46:33.048Z,16.53
2023-12-30T10:47:33.050Z,16.25
2023-12-30T10:48:33.069Z,16.73
2023-12-30T10:49:33.211Z,17.49
2023-12-30T10:50:33.231Z,18.25
2023-12-30T10:51:33.205Z,18.92
2023-12-30T10:52:33.310Z,19.59
2023-12-30T10:53:33.290Z,20.13
2023-12-30T10:54:33.322Z,20.65
2023-12-30T10:55:33.462Z,20.98
2023-12-30T10:56:33.385Z,21.29
2023-12-30T10:57:33.442Z,21.25
2023-12-30T10:58:33.597Z,20.45
2023-12-30T10:59:33.485Z,19.86
2023-12-30T11:00:33.549Z,19.47
2023-12-30T11:01:33.613Z,19.00
2023-12-30T11:02:33.561Z,18.20
2023-12-30T11:03:33.668Z,17.54
2023-12-30T11:04:33.669Z,17.20
2023-12-30T11:05:33.786Z,16.86
2023-12-30T11:06:33.847Z,17.14
2023-12-30T11:07:33.842Z,18.11
2023-12-30T11:08:33.813Z,18.75
2023-12-30T11:09:33.883Z,18.81
2023-12-30T11:10:34.048Z,18.55
2023-12-30T11:11:33.990Z,18.57
2023-12-30T11:12:34.045Z,19.19
2023-12-30T11:13:34.123Z,19.94
2023-12-30T11:14:34.221Z,20.59
2023-12-30T11:15:34.152Z,21.33
2023-12-30T11:16:34.316Z,21.90
2023-12-30T11:17:34.303Z,22.40
2023-12-30T11:18:34.356Z,22.89
2023-12-30T11:19:34.442Z,23.35
2023-12-30T11:20:34.347Z,23.71
2023-12-30T11:21:34.414Z,24.05
2023-12-30T11:22:34.450Z,24.36
2023-12-30T11:23:34.496Z,24.66
2023-12-30T11:24:34.634Z,24.91
2023-12-30T11:25:34.704Z,25.16
2023-12-30T11:26:34.618Z,25.40
2023-12-30T11:27:34.615Z,25.61
2023-12-30T11:28:34.720Z,25.80
2023-12-30T11:29:34.724Z,25.95
2023-12-30T11:30:34.941Z,26.11
2023-12-30T11:31:34.900Z,26.34
2023-12-30T11:32:34.965Z,26.44
2023-12-30T11:33:35.037Z,26.56
2023-12-30T11:34:34.978Z,26.73
2023-12-30T11:35:35.020Z,26.81
2023-12-30T11:36:34.970Z,26.95
2023-12-30T11:37:35.014Z,27.03
2023-12-30T11:38:34.991Z,27.15
2023-12-30T11:39:35.067Z,27.24
2023-12-30T11:40:35.127Z,27.33
2023-12-30T11:41:35.078Z,27.44
2023-12-30T11:42:42.218Z,27.43
2023-12-30T11:43:36.159Z,27.55
2023-12-30T11:44:35.149Z,27.66
2023-12-30T11:45:35.138Z,27.71
2023-12-30T11:46:35.307Z,27.71
2023-12-30T11:47:35.169Z,27.80
2023-12-30T11:48:35.199Z,27.84
2023-12-30T11:49:35.169Z,27.91
2023-12-30T11:50:35.142Z,27.98
2023-12-30T11:51:35.146Z,28.03
2023-12-30T11:52:35.177Z,28.07
2023-12-30T11:53:35.147Z,28.06
2023-12-30T11:54:35.163Z,28.21
2023-12-30T11:55:35.249Z,28.21
2023-12-30T11:56:35.274Z,28.23
2023-12-30T11:57:35.333Z,28.25
2023-12-30T11:58:35.452Z,28.31
2023-12-30T11:59:35.485Z,28.34
2023-12-30T12:00:35.597Z,28.38
2023-12-30T12:01:35.749Z,28.45
2023-12-30T12:02:35.763Z,28.47
2023-12-30T12:03:35.774Z,28.44
2023-12-30T12:04:35.869Z,28.50
2023-12-30T12:05:35.926Z,28.54
2023-12-30T12:06:35.977Z,28.53
2023-12-30T12:07:36.175Z,28.58
2023-12-30T12:08:36.052Z,28.61
2023-12-30T12:09:36.167Z,28.67
2023-12-30T12:10:36.243Z,28.69
2023-12-30T12:11:36.234Z,28.71
2023-12-30T12:12:36.293Z,28.76
2023-12-30T12:13:36.384Z,28.76
2023-12-30T12:14:36.439Z,28.80
2023-12-30T12:15:36.491Z,28.83
2023-12-30T12:16:36.548Z,28.81
2023-12-30T12:17:36.796Z,28.85
2023-12-30T12:18:36.932Z,28.92
2023-12-30T12:19:36.780Z,28.96
2023-12-30T12:20:36.789Z,28.96
2023-12-30T12:21:36.847Z,28.95
2023-12-30T12:22:36.982Z,29.01
2023-12-30T12:23:36.953Z,29.02
2023-12-30T12:24:37.014Z,29.04
2023-12-30T12:25:37.102Z,29.04
2023-12-30T12:26:37.109Z,29.07
2023-12-30T12:27:37.131Z,29.05
2023-12-30T12:28:37.253Z,29.08
2023-12-30T12:29:37.241Z,29.06
2023-12-30T12:30:37.347Z,29.12
2023-12-30T12:31:37.394Z,29.16
2023-12-30T12:32:37.400Z,29.14
2023-12-30T12:33:37.464Z,29.17
2023-12-30T12:34:37.546Z,29.18
2023-12-30T12:35:37.450Z,29.24
2023-12-30T12:36:37.442Z,29.23
2023-12-30T12:37:37.608Z,29.21
2023-12-30T12:38:37.454Z,29.32
2023-12-30T12:39:37.457Z,29.30
2023-12-30T12:40:37.513Z,29.28
2023-12-30T12:41:37.481Z,29.35
2023-12-30T12:42:37.495Z,29.35
2023-12-30T12:43:37.537Z,29.42
2023-12-30T12:44:37.521Z,29.41
2023-12-30T12:45:37.547Z,29.40
2023-12-30T12:46:37.627Z,29.46
2023-12-30T12:47:37.586Z,29.43
2023-12-30T12:48:37.589Z,29.36
2023-12-30T12:49:37.626Z,29.34
2023-12-30T12:50:37.684Z,29.42
2023-12-30T12:51:37.606Z,29.42
2023-12-30T12:52:37.777Z,29.39